Mikiona — WDD5057 — position and weather

sailwx.info

Track history (hours):
 
Tides and Currents Weather Stations Pressure Air Temp Water Temp Dewpoint Dewpoint Depression Visibility Wind Speed Wind Dir Waves Ship Positions

Mikiona

Owner: Sause Bros Inc, Coos Bay, OR. More information available from US FCC via Universal Licensing System and Coast Guard Vessel Documentation Center.

Last reported at 2018-Jun-21 16:30 UTC. Time now 2018-Jun-21 16:29 UTC.
Position N 37°47' W 122°33'.

Length 37 m; draft 5 m.

Type: Towing. MMSI: 367153070.

Date/timePositionNaut miles runAvg speedWind from/ knotsBaromVisibWave heightAir tempDewpointWater temp
2018-Jun-21 16:30N 37°47' W 122°33'3 7.0
2018-Jun-21 16:00N 37°46' W 122°37'3 6.9
2018-Jun-21 15:31N 37°44' W 122°41'3 6.6
2018-Jun-21 15:00N 37°42' W 122°44'3 6.9
2018-Jun-21 14:30N 37°40' W 122°48'4 7.2
2018-Jun-21 14:00N 37°38' W 122°51'4 7.3
2018-Jun-21 13:30N 37°36' W 122°55'4 7.3
2018-Jun-21 13:01N 37°34' W 122°59'4 7.1
2018-Jun-21 12:31N 37°32' W 123°02'5 6.8
2018-Jun-21 11:44N 37°27' W 123°02'2 7.2
2018-Jun-21 11:30N 37°25' W 123°02'3 7.1
2018-Jun-21 11:00N 37°22' W 123°01'4 7.0
2018-Jun-21 10:30N 37°18' W 122°60'3 6.9
2018-Jun-21 10:00N 37°15' W 122°59'5 6.9
2018-Jun-21 09:21N 37°11' W 122°57'4 7.1
2018-Jun-21 08:44N 37°06' W 122°56'2 7.1
2018-Jun-21 08:30N 37°05' W 122°55'30 7.2
2018-Jun-21 04:15N 36°37' W 122°40'2 6.5
2018-Jun-21 04:00N 36°35' W 122°39'3 6.7
2018-Jun-21 03:30N 36°33' W 122°37'3 6.8
2018-Jun-21 03:00N 36°29' W 122°35'3 6.7
2018-Jun-21 02:30N 36°26' W 122°33'3 6.4
2018-Jun-21 02:00N 36°23' W 122°32'3 6.3
2018-Jun-21 01:30N 36°21' W 122°30'3 6.1
2018-Jun-21 01:00N 36°18' W 122°28'3 6.2
2018-Jun-21 00:30N 36°15' W 122°27'3 6.3
2018-Jun-21 00:00N 36°12' W 122°25'3 6.6
2018-Jun-20 23:30N 36°09' W 122°23'3 6.5
2018-Jun-20 23:00N 36°06' W 122°22'3 6.6
2018-Jun-20 22:30N 36°04' W 122°20'3 6.5
2018-Jun-20 22:00N 36°01' W 122°18'3 6.5
2018-Jun-20 21:30N 35°58' W 122°15'3 6.4
2018-Jun-20 20:59N 35°55' W 122°13'3 6.4
2018-Jun-20 20:30N 35°52' W 122°11'3 6.1
2018-Jun-20 19:59N 35°50' W 122°09'3 5.4
2018-Jun-20 19:30N 35°47' W 122°08'3 5.4
2018-Jun-20 19:00N 35°45' W 122°06'3 5.7
2018-Jun-20 18:30N 35°43' W 122°04'3 6.0
2018-Jun-20 18:00N 35°40' W 122°02'3 6.3
2018-Jun-20 17:30N 35°37' W 122°00'3 6.6
2018-Jun-20 17:00N 35°35' W 121°58'3 6.6
2018-Jun-20 16:30N 35°32' W 121°56'3 6.5
2018-Jun-20 16:00N 35°29' W 121°55'3 6.4
2018-Jun-20 15:30N 35°26' W 121°53'3 6.2
2018-Jun-20 15:00N 35°23' W 121°51'3 6.3
2018-Jun-20 14:30N 35°21' W 121°49'3 6.5
2018-Jun-20 14:00N 35°18' W 121°46'3 6.6
2018-Jun-20 13:29N 35°15' W 121°44'3 6.7
2018-Jun-20 12:59N 35°12' W 121°42'13 6.9
2018-Jun-20 11:04N 35°01' W 121°34'1 6.7
2018-Jun-20 10:59N 35°00' W 121°34'3 7.0
2018-Jun-20 10:30N 34°58' W 121°32'7 7.3
2018-Jun-20 09:31N 34°51' W 121°27'1 7.6
2018-Jun-20 09:26N 34°51' W 121°27'3 7.6
2018-Jun-20 09:00N 34°48' W 121°24'4 7.4
2018-Jun-20 08:30N 34°45' W 121°22'4 7.4
2018-Jun-20 08:00N 34°42' W 121°20'4 7.3
2018-Jun-20 07:30N 34°39' W 121°18'3 6.9
2018-Jun-20 07:00N 34°36' W 121°15'3 7.0
2018-Jun-20 06:30N 34°32' W 121°13'4 7.2
2018-Jun-20 05:59N 34°29' W 121°11'4 6.9
2018-Jun-20 05:25N 34°26' W 121°09'3 6.8
2018-Jun-20 05:00N 34°24' W 121°07'3 6.7
2018-Jun-20 04:30N 34°21' W 121°05'3 6.8
2018-Jun-20 04:00N 34°18' W 121°03'3 6.7
2018-Jun-20 03:31N 34°15' W 121°01'3 6.7
2018-Jun-20 03:00N 34°12' W 120°59'3 6.4
2018-Jun-20 02:31N 34°09' W 120°57'3 6.1
2018-Jun-20 02:00N 34°07' W 120°55'3 5.9
2018-Jun-20 01:31N 34°04' W 120°53'3 5.9
2018-Jun-20 01:00N 34°02' W 120°50'3 6.4
2018-Jun-20 00:30N 34°00' W 120°47'3 6.8
2018-Jun-20 00:01N 33°59' W 120°44'4 7.2
2018-Jun-19 23:30N 33°57' W 120°40'4 7.4
2018-Jun-19 23:00N 33°55' W 120°36'4 7.6
2018-Jun-19 22:31N 33°53' W 120°32'4 7.8
2018-Jun-19 22:00N 33°51' W 120°28'4 7.5
2018-Jun-19 21:31N 33°49' W 120°24'4 7.5
2018-Jun-19 21:00N 33°47' W 120°20'4 7.5
2018-Jun-19 20:30N 33°45' W 120°16'5 7.2
2018-Jun-19 19:52N 33°43' W 120°11'3 7.3
2018-Jun-19 19:31N 33°43' W 120°08'4 7.6
2018-Jun-19 18:56N 33°43' W 120°03'4 7.9
2018-Jun-19 18:27N 33°43' W 119°59'4 8.0
2018-Jun-19 18:00N 33°42' W 119°54'4 8.2
2018-Jun-19 17:29N 33°42' W 119°49'4 7.9
2018-Jun-19 17:00N 33°41' W 119°45'4 8.1
2018-Jun-19 16:30N 33°42' W 119°40'4 8.1
2018-Jun-19 16:00N 33°42' W 119°35'4 8.2
2018-Jun-19 15:31N 33°42' W 119°30'4 7.9
2018-Jun-19 15:01N 33°42' W 119°25'4 7.7
2018-Jun-19 14:30N 33°42' W 119°21'4 8.1
2018-Jun-19 14:00N 33°42' W 119°16'4 8.3
2018-Jun-19 13:30N 33°42' W 119°11'4 8.0
2018-Jun-19 13:00N 33°41' W 119°06'4 8.1
2018-Jun-19 12:30N 33°41' W 119°01'4 8.4
2018-Jun-19 12:00N 33°41' W 118°56'5 8.2
2018-Jun-19 11:26N 33°40' W 118°51'6 8.1
2018-Jun-19 10:43N 33°40' W 118°44'2 8.0
2018-Jun-19 10:30N 33°40' W 118°42'20 7.9
2018-Jun-19 08:01N 33°38' W 118°18'1 6.6
2018-Jun-19 07:53N 33°39' W 118°17'3 6.5
2018-Jun-19 07:30N 33°41' W 118°15'2 4.7
2018-Jun-19 07:00N 33°43' W 118°16'0 1.0
2018-Jun-19 06:30N 33°43' W 118°16'2 4.7
2018-Jun-19 06:00N 33°46' W 118°16'0 0.3
2018-Jun-19 05:30N 33°46' W 118°16'0 0.1
2018-Jun-19 05:00N 33°46' W 118°16'0 0.2
2018-Jun-19 04:30N 33°46' W 118°16'0 0.0
2018-Jun-19 04:00N 33°46' W 118°16'0 0.0
2018-Jun-19 03:30N 33°46' W 118°16'0 0.0
2018-Jun-19 03:00N 33°46' W 118°16'0 0.0
2018-Jun-19 02:30N 33°46' W 118°16'0 0.0
2018-Jun-19 02:00N 33°46' W 118°16'0 0.0
2018-Jun-19 01:30N 33°46' W 118°16'0 0.0
2018-Jun-19 01:00N 33°46' W 118°16'0 0.0
2018-Jun-19 00:30N 33°46' W 118°16'0 0.0
2018-Jun-19 00:00N 33°46' W 118°16'0 0.0
2018-Jun-18 23:30N 33°46' W 118°16'0 0.0
2018-Jun-18 23:00N 33°46' W 118°16'0 0.0
2018-Jun-18 22:30N 33°46' W 118°16'0 0.0
2018-Jun-18 22:00N 33°46' W 118°16'0 0.0
2018-Jun-18 21:30N 33°46' W 118°16'0 0.0
2018-Jun-18 21:00N 33°46' W 118°16'0 0.0
2018-Jun-18 20:30N 33°46' W 118°16'0 0.0
2018-Jun-18 20:00N 33°46' W 118°16'2 3.3
2018-Jun-18 19:31N 33°44' W 118°17'3 5.6
2018-Jun-18 19:01N 33°44' W 118°13'2 3.2
2018-Jun-18 18:28N 33°46' W 118°13'0 0.0
2018-Jun-18 17:58N 33°46' W 118°13'0 0.0
2018-Jun-18 17:28N 33°46' W 118°13'0 0.0
2018-Jun-18 16:55N 33°46' W 118°13'0 0.0
2018-Jun-18 16:28N 33°46' W 118°13'0 0.0
2018-Jun-18 15:58N 33°46' W 118°13'0 0.0
2018-Jun-18 15:28N 33°46' W 118°13'0 0.0
2018-Jun-18 14:55N 33°46' W 118°13'0 0.0
2018-Jun-18 14:28N 33°46' W 118°13'0 0.0
2018-Jun-18 13:58N 33°46' W 118°13'0 0.0
2018-Jun-18 13:25N 33°46' W 118°13'0 0.0
2018-Jun-18 12:58N 33°46' W 118°13'0 0.0
2018-Jun-18 12:16N 33°46' W 118°13'0 0.0
2018-Jun-18 11:52N 33°46' W 118°13'0 0.0
2018-Jun-18 11:19N 33°46' W 118°13'0 0.0
2018-Jun-18 10:58N 33°46' W 118°13'0 0.0
2018-Jun-18 10:28N 33°46' W 118°13'0 0.0
2018-Jun-18 09:55N 33°46' W 118°13'0 0.0
2018-Jun-18 09:28N 33°46' W 118°13'0 0.0
2018-Jun-18 08:52N 33°46' W 118°13'0 0.0
2018-Jun-18 08:28N 33°46' W 118°13'0 0.0
2018-Jun-18 07:58N 33°46' W 118°13'0 0.0
2018-Jun-18 07:28N 33°46' W 118°13'0 0.0
2018-Jun-18 06:52N 33°46' W 118°13'0 0.0
2018-Jun-18 06:28N 33°46' W 118°13'0 0.0
2018-Jun-18 05:55N 33°46' W 118°13'0 0.0
2018-Jun-18 05:28N 33°46' W 118°13'0 0.0
2018-Jun-18 04:58N 33°46' W 118°13'0 0.0
2018-Jun-18 04:28N 33°46' W 118°13'0 0.0
2018-Jun-18 03:55N 33°46' W 118°13'0 0.0
2018-Jun-18 03:28N 33°46' W 118°13'0 0.0
2018-Jun-18 02:58N 33°46' W 118°13'0 0.0
2018-Jun-18 02:28N 33°46' W 118°13'0 0.0
2018-Jun-18 01:58N 33°46' W 118°13'0 0.0
2018-Jun-18 01:28N 33°46' W 118°13'0 0.0
2018-Jun-18 00:58N 33°46' W 118°13'0 0.0
2018-Jun-18 00:28N 33°46' W 118°13'0 0.0
2018-Jun-17 23:58N 33°46' W 118°13'0 0.0
2018-Jun-17 23:28N 33°46' W 118°13'0 0.0
2018-Jun-17 22:58N 33°46' W 118°13'0 0.0
2018-Jun-17 22:28N 33°46' W 118°13'0 0.0
2018-Jun-17 21:58N 33°46' W 118°13'0 0.0
2018-Jun-17 21:28N 33°46' W 118°13'0 0.0
2018-Jun-17 20:58N 33°46' W 118°13'0 0.0
2018-Jun-17 20:28N 33°46' W 118°13'0 0.0
2018-Jun-17 19:58N 33°46' W 118°13'0 0.0
2018-Jun-17 19:28N 33°46' W 118°13'0 0.0
2018-Jun-17 18:58N 33°46' W 118°13'0 0.0
2018-Jun-17 18:28N 33°46' W 118°13'0 0.0
2018-Jun-17 17:58N 33°46' W 118°13'0 0.0
2018-Jun-17 17:28N 33°46' W 118°13'0 0.0
2018-Jun-17 16:52N 33°46' W 118°13'0 0.0
2018-Jun-17 16:28N 33°46' W 118°13'0 0.0
2018-Jun-17 15:58N 33°46' W 118°13'0 0.0
2018-Jun-17 15:28N 33°46' W 118°13'0 0.0
2018-Jun-17 14:58N 33°46' W 118°13'0 0.0
2018-Jun-17 14:28N 33°46' W 118°13'0 0.0
2018-Jun-17 13:58N 33°46' W 118°13'0 0.0
2018-Jun-17 13:28N 33°46' W 118°13'0 0.0
2018-Jun-17 12:34N 33°46' W 118°13'0 0.1
2018-Jun-17 12:28N 33°46' W 118°13'0 0.0
2018-Jun-17 11:55N 33°46' W 118°13'0 0.0
2018-Jun-17 11:22N 33°46' W 118°13'0 0.0
2018-Jun-17 10:58N 33°46' W 118°13'0 0.0
2018-Jun-17 10:28N 33°46' W 118°13'0 0.0
2018-Jun-17 09:58N 33°46' W 118°13'0 0.0
2018-Jun-17 09:25N 33°46' W 118°13'0 0.0
2018-Jun-17 08:46N 33°46' W 118°13'0 0.0
2018-Jun-17 08:25N 33°46' W 118°13'0 0.0
2018-Jun-17 07:58N 33°46' W 118°13'0 0.0
2018-Jun-17 07:22N 33°46' W 118°13'0 0.0
2018-Jun-17 06:40N 33°46' W 118°13'0 0.0
2018-Jun-17 06:28N 33°46' W 118°13'0 0.0
2018-Jun-17 05:55N 33°46' W 118°13'0 0.0
2018-Jun-17 05:25N 33°46' W 118°13'0 0.0
2018-Jun-17 04:52N 33°46' W 118°13'0 0.0
2018-Jun-17 04:22N 33°46' W 118°13'0 0.0
2018-Jun-17 03:58N 33°46' W 118°13'0 0.0
2018-Jun-17 03:28N 33°46' W 118°13'0 0.0
2018-Jun-17 02:58N 33°46' W 118°13'0 0.0
2018-Jun-17 02:28N 33°46' W 118°13'0 0.0
2018-Jun-17 01:58N 33°46' W 118°13'0 0.0
2018-Jun-17 01:25N 33°46' W 118°13'0 0.0
2018-Jun-17 00:58N 33°46' W 118°13'0 0.0
2018-Jun-17 00:28N 33°46' W 118°13'0 0.0
2018-Jun-16 23:58N 33°46' W 118°13'0 0.0
2018-Jun-16 23:28N 33°46' W 118°13'0 0.0
2018-Jun-16 22:58N 33°46' W 118°13'0 0.0
2018-Jun-16 22:28N 33°46' W 118°13'0 0.0
2018-Jun-16 21:58N 33°46' W 118°13'0 0.0
2018-Jun-16 21:25N 33°46' W 118°13'0 0.0
2018-Jun-16 20:55N 33°46' W 118°13'0 1.2
2018-Jun-16 20:30N 33°46' W 118°13'3 6.8
2018-Jun-16 20:00N 33°43' W 118°16'2 4.9
2018-Jun-16 19:30N 33°46' W 118°16'0 0.1
2018-Jun-16 19:00N 33°46' W 118°16'2 3.5
2018-Jun-16 18:30N 33°44' W 118°17'2 4.7
2018-Jun-16 18:00N 33°44' W 118°14'0 0.3
2018-Jun-16 17:30N 33°44' W 118°14'0 0.1
2018-Jun-16 16:57N 33°44' W 118°14'0 0.0
2018-Jun-16 16:30N 33°44' W 118°14'0 0.1
2018-Jun-16 16:00N 33°44' W 118°14'0 0.1
2018-Jun-16 15:30N 33°44' W 118°14'3 5.0
2018-Jun-16 15:00N 33°43' W 118°11'3 6.7
2018-Jun-16 14:30N 33°40' W 118°11'3 7.0
2018-Jun-16 14:00N 33°37' W 118°14'4 8.2
2018-Jun-16 13:30N 33°36' W 118°19'4 8.6
2018-Jun-16 12:59N 33°36' W 118°24'8 7.7
2018-Jun-16 11:57N 33°36' W 118°34'6 7.6
2018-Jun-16 11:14N 33°36' W 118°40'2 7.5
2018-Jun-16 10:58N 33°36' W 118°43'4 7.5
2018-Jun-16 10:28N 33°36' W 118°47'6 7.4
2018-Jun-16 09:44N 33°37' W 118°54'2 7.2
2018-Jun-16 09:30N 33°37' W 118°56'3 6.9
2018-Jun-16 09:01N 33°37' W 118°60'3 6.8
2018-Jun-16 08:30N 33°38' W 119°04'4 7.2
2018-Jun-16 08:00N 33°38' W 119°08'5 7.4
2018-Jun-16 07:20N 33°39' W 119°14'3 7.2
2018-Jun-16 06:52N 33°39' W 119°18'3 7.0
2018-Jun-16 06:28N 33°39' W 119°21'3 7.2
2018-Jun-16 06:00N 33°40' W 119°25'4 7.1
2018-Jun-16 05:26N 33°40' W 119°30'4 7.3
2018-Jun-16 04:53N 33°40' W 119°35'3 7.3
2018-Jun-16 04:29N 33°41' W 119°39'4 7.8
2018-Jun-16 03:58N 33°41' W 119°43'4 8.2
2018-Jun-16 03:29N 33°42' W 119°48'4 8.0
2018-Jun-16 03:00N 33°42' W 119°53'4 7.5
2018-Jun-16 02:25N 33°42' W 119°58'5 8.1
2018-Jun-16 01:51N 33°43' W 120°03'3 8.6
2018-Jun-16 01:30N 33°43' W 120°07'4 7.8
2018-Jun-16 00:55N 33°44' W 120°12'4 7.3
2018-Jun-16 00:25N 33°45' W 120°16'4 8.0
2018-Jun-15 23:53N 33°48' W 120°21'3 8.2
2018-Jun-15 23:29N 33°49' W 120°24'4 7.9
2018-Jun-15 23:00N 33°51' W 120°28'5 8.0
2018-Jun-15 22:24N 33°54' W 120°33'3 7.9
2018-Jun-15 21:58N 33°55' W 120°37'4 7.9
2018-Jun-15 21:25N 33°57' W 120°41'4 7.8
2018-Jun-15 20:57N 33°59' W 120°45'5 7.9
2018-Jun-15 20:21N 34°02' W 120°50'3 8.6
2018-Jun-15 20:00N 34°04' W 120°52'5 8.3
2018-Jun-15 19:27N 34°08' W 120°55'4 8.2
2018-Jun-15 18:57N 34°11' W 120°58'4 7.8
2018-Jun-15 18:28N 34°14' W 121°00'5 7.5
2018-Jun-15 17:47N 34°19' W 121°04'2 7.2
2018-Jun-15 17:28N 34°21' W 121°05'3 7.1
2018-Jun-15 17:00N 34°23' W 121°08'4 7.5
2018-Jun-15 16:29N 34°26' W 121°11'4 8.1
2018-Jun-15 15:57N 34°30' W 121°13'4 8.0
2018-Jun-15 15:31N 34°33' W 121°15'4 8.1
2018-Jun-15 14:58N 34°37' W 121°18'4 8.0
2018-Jun-15 14:30N 34°40' W 121°21'4 7.9
2018-Jun-15 13:59N 34°43' W 121°23'4 7.5
2018-Jun-15 13:30N 34°46' W 121°26'7 8.1
2018-Jun-15 12:36N 34°52' W 121°31'1 9.5
2018-Jun-15 12:29N 34°53' W 121°32'4 8.1
2018-Jun-15 12:00N 34°57' W 121°34'4 7.7
2018-Jun-15 11:29N 34°60' W 121°37'4 8.0
2018-Jun-15 10:58N 35°03' W 121°40'4 8.1
2018-Jun-15 10:26N 35°07' W 121°42'146 7.4
2018-Jun-14 14:43N 37°18' W 123°03'31 5.9
2018-Jun-14 09:26N 37°45' W 122°43'4 5.7
2018-Jun-14 08:45N 37°46' W 122°38'1 5.9
2018-Jun-14 08:30N 37°46' W 122°37'3 6.5
2018-Jun-14 08:00N 37°48' W 122°33'3 6.8
2018-Jun-14 07:30N 37°49' W 122°29'3 5.6
2018-Jun-14 07:00N 37°50' W 122°26'3 5.0
2018-Jun-14 06:30N 37°53' W 122°25'2 4.3
2018-Jun-14 06:00N 37°55' W 122°25'1 1.6
2018-Jun-14 05:30N 37°55' W 122°25'0 0.7
2018-Jun-14 04:58N 37°55' W 122°25'0 0.7
2018-Jun-14 04:30N 37°55' W 122°24'0 0.1
2018-Jun-14 03:43N 37°55' W 122°25'0 0.0
2018-Jun-14 03:28N 37°55' W 122°25'0 0.0
2018-Jun-14 02:58N 37°55' W 122°25'0 0.0
2018-Jun-14 02:28N 37°55' W 122°25'0 0.0
2018-Jun-14 02:01N 37°55' W 122°25'0 0.0
2018-Jun-14 01:28N 37°55' W 122°25'0 0.0
2018-Jun-14 00:55N 37°55' W 122°25'0 0.0
2018-Jun-14 00:19N 37°55' W 122°25'0 0.0
2018-Jun-13 23:58N 37°55' W 122°25'0 0.0
2018-Jun-13 23:31N 37°55' W 122°25'0 0.0
2018-Jun-13 22:52N 37°55' W 122°25'0 0.0
2018-Jun-13 22:28N 37°55' W 122°25'0 0.0
2018-Jun-13 22:01N 37°55' W 122°25'0 0.0
2018-Jun-13 21:28N 37°55' W 122°25'0 0.0
2018-Jun-13 20:58N 37°55' W 122°25'0 0.0
2018-Jun-13 20:28N 37°55' W 122°25'0 0.0
2018-Jun-13 20:01N 37°55' W 122°25'0 0.0
2018-Jun-13 19:31N 37°55' W 122°25'0 0.0
2018-Jun-13 18:58N 37°55' W 122°25'0 0.0
2018-Jun-13 18:31N 37°55' W 122°25'0 0.0
2018-Jun-13 17:55N 37°55' W 122°25'0 0.0
2018-Jun-13 17:31N 37°55' W 122°25'0 0.0
2018-Jun-13 16:52N 37°55' W 122°25'0 0.0
2018-Jun-13 16:31N 37°55' W 122°25'0 0.0
2018-Jun-13 16:01N 37°55' W 122°25'0 0.0
2018-Jun-13 15:31N 37°55' W 122°25'0 0.0
2018-Jun-13 14:58N 37°55' W 122°25'0 0.0
2018-Jun-13 14:31N 37°55' W 122°25'0 0.0
2018-Jun-13 13:25N 37°55' W 122°25'0 0.0
2018-Jun-13 13:01N 37°55' W 122°25'0 0.0
2018-Jun-13 10:25N 37°55' W 122°25'0 0.0
2018-Jun-13 09:01N 37°55' W 122°25'0 0.0
2018-Jun-13 08:22N 37°55' W 122°25'0 0.0
2018-Jun-13 08:01N 37°55' W 122°25'0 0.0
2018-Jun-13 06:55N 37°55' W 122°25'0 0.0
2018-Jun-13 06:22N 37°55' W 122°25'0 0.0
2018-Jun-13 05:22N 37°55' W 122°25'0 0.0
2018-Jun-13 04:21N 37°55' W 122°25'0 0.0
2018-Jun-13 04:01N 37°55' W 122°25'0 0.0
2018-Jun-13 03:31N 37°55' W 122°25'0 0.0
2018-Jun-13 03:01N 37°55' W 122°25'0 0.0
2018-Jun-13 02:31N 37°55' W 122°25'0 0.0
2018-Jun-13 01:55N 37°55' W 122°25'0 0.0
2018-Jun-13 01:22N 37°55' W 122°25'0 0.0
2018-Jun-13 01:00N 37°55' W 122°25'0 0.0
2018-Jun-13 00:30N 37°55' W 122°25'0 0.0
2018-Jun-12 23:55N 37°55' W 122°25'0 0.0
2018-Jun-12 23:27N 37°55' W 122°25'0 0.0
2018-Jun-12 23:00N 37°55' W 122°25'0 0.0
2018-Jun-12 22:31N 37°55' W 122°25'0 0.0
2018-Jun-12 22:01N 37°55' W 122°25'0 0.0
2018-Jun-12 21:12N 37°55' W 122°25'0 0.0
2018-Jun-12 20:54N 37°55' W 122°25'0 0.0
2018-Jun-12 20:30N 37°55' W 122°25'0 0.0
2018-Jun-12 20:01N 37°55' W 122°25'0 0.0
2018-Jun-12 18:42N 37°55' W 122°25'0 0.0
2018-Jun-12 17:42N 37°55' W 122°25'0 0.0
2018-Jun-12 17:18N 37°55' W 122°25'0 0.0
2018-Jun-12 16:42N 37°55' W 122°25'0 0.0
2018-Jun-12 16:06N 37°55' W 122°25'0 0.1
2018-Jun-12 16:00N 37°55' W 122°25'0 0.0
2018-Jun-12 14:57N 37°55' W 122°25'0 0.0
2018-Jun-12 13:12N 37°55' W 122°25'0 0.0
2018-Jun-12 12:42N 37°55' W 122°25'0 0.0
2018-Jun-12 11:18N 37°55' W 122°25'0 0.0
2018-Jun-12 10:06N 37°55' W 122°25'0 0.0
2018-Jun-12 09:36N 37°55' W 122°25'0 0.0
2018-Jun-12 09:18N 37°55' W 122°25'0 0.0
2018-Jun-12 09:00N 37°55' W 122°25'0 0.0
2018-Jun-12 06:48N 37°55' W 122°25'0 0.0
2018-Jun-12 06:30N 37°55' W 122°25'0 0.0
2018-Jun-12 06:00N 37°55' W 122°25'0 0.0
2018-Jun-12 05:30N 37°55' W 122°25'0 0.0
2018-Jun-12 05:00N 37°55' W 122°25'0 0.0
2018-Jun-12 04:12N 37°55' W 122°25'0 0.0
2018-Jun-12 03:54N 37°55' W 122°25'0 0.0
2018-Jun-12 03:30N 37°55' W 122°25'0 0.0
2018-Jun-12 03:00N 37°55' W 122°25'0 0.0
2018-Jun-12 02:30N 37°55' W 122°25'0 0.0
2018-Jun-12 02:00N 37°55' W 122°25'0 0.0
2018-Jun-12 01:30N 37°55' W 122°25'0 0.0
2018-Jun-12 00:54N 37°55' W 122°25'0 0.0
2018-Jun-11 23:12N 37°55' W 122°25'0 0.0
2018-Jun-11 23:00N 37°55' W 122°25'  
Track history (hours):
 
Tides and Currents Weather Stations Pressure Air Temp Water Temp Dewpoint Dewpoint Depression Visibility Wind Speed Wind Dir Waves Ship Positions

Mikiona

Owner: Sause Bros Inc, Coos Bay, OR. More information available from US FCC via Universal Licensing System and Coast Guard Vessel Documentation Center.

Last reported at 2018-Jun-21 16:30 UTC. Time now 2018-Jun-21 16:29 UTC.
Position N 37°47' W 122°33'.

Length 37 m; draft 5 m.

Type: Towing. MMSI: 367153070.

Date/timePositionNaut miles runAvg speedWind from/ knotsBaromVisibWave heightAir tempDewpointWater temp
2018-Jun-21 16:30N 37°47' W 122°33'3 7.0
2018-Jun-21 16:00N 37°46' W 122°37'3 6.9
2018-Jun-21 15:31N 37°44' W 122°41'3 6.6
2018-Jun-21 15:00N 37°42' W 122°44'3 6.9
2018-Jun-21 14:30N 37°40' W 122°48'4 7.2
2018-Jun-21 14:00N 37°38' W 122°51'4 7.3
2018-Jun-21 13:30N 37°36' W 122°55'4 7.3
2018-Jun-21 13:01N 37°34' W 122°59'4 7.1
2018-Jun-21 12:31N 37°32' W 123°02'5 6.8
2018-Jun-21 11:44N 37°27' W 123°02'2 7.2
2018-Jun-21 11:30N 37°25' W 123°02'3 7.1
2018-Jun-21 11:00N 37°22' W 123°01'4 7.0
2018-Jun-21 10:30N 37°18' W 122°60'3 6.9
2018-Jun-21 10:00N 37°15' W 122°59'5 6.9
2018-Jun-21 09:21N 37°11' W 122°57'4 7.1
2018-Jun-21 08:44N 37°06' W 122°56'2 7.1
2018-Jun-21 08:30N 37°05' W 122°55'30 7.2
2018-Jun-21 04:15N 36°37' W 122°40'2 6.5
2018-Jun-21 04:00N 36°35' W 122°39'3 6.7
2018-Jun-21 03:30N 36°33' W 122°37'3 6.8
2018-Jun-21 03:00N 36°29' W 122°35'3 6.7
2018-Jun-21 02:30N 36°26' W 122°33'3 6.4
2018-Jun-21 02:00N 36°23' W 122°32'3 6.3
2018-Jun-21 01:30N 36°21' W 122°30'3 6.1
2018-Jun-21 01:00N 36°18' W 122°28'3 6.2
2018-Jun-21 00:30N 36°15' W 122°27'3 6.3
2018-Jun-21 00:00N 36°12' W 122°25'3 6.6
2018-Jun-20 23:30N 36°09' W 122°23'3 6.5
2018-Jun-20 23:00N 36°06' W 122°22'3 6.6
2018-Jun-20 22:30N 36°04' W 122°20'3 6.5
2018-Jun-20 22:00N 36°01' W 122°18'3 6.5
2018-Jun-20 21:30N 35°58' W 122°15'3 6.4
2018-Jun-20 20:59N 35°55' W 122°13'3 6.4
2018-Jun-20 20:30N 35°52' W 122°11'3 6.1
2018-Jun-20 19:59N 35°50' W 122°09'3 5.4
2018-Jun-20 19:30N 35°47' W 122°08'3 5.4
2018-Jun-20 19:00N 35°45' W 122°06'3 5.7
2018-Jun-20 18:30N 35°43' W 122°04'3 6.0
2018-Jun-20 18:00N 35°40' W 122°02'3 6.3
2018-Jun-20 17:30N 35°37' W 122°00'3 6.6
2018-Jun-20 17:00N 35°35' W 121°58'3 6.6
2018-Jun-20 16:30N 35°32' W 121°56'3 6.5
2018-Jun-20 16:00N 35°29' W 121°55'3 6.4
2018-Jun-20 15:30N 35°26' W 121°53'3 6.2
2018-Jun-20 15:00N 35°23' W 121°51'3 6.3
2018-Jun-20 14:30N 35°21' W 121°49'3 6.5
2018-Jun-20 14:00N 35°18' W 121°46'3 6.6
2018-Jun-20 13:29N 35°15' W 121°44'3 6.7
2018-Jun-20 12:59N 35°12' W 121°42'13 6.9
2018-Jun-20 11:04N 35°01' W 121°34'1 6.7
2018-Jun-20 10:59N 35°00' W 121°34'3 7.0
2018-Jun-20 10:30N 34°58' W 121°32'7 7.3
2018-Jun-20 09:31N 34°51' W 121°27'1 7.6
2018-Jun-20 09:26N 34°51' W 121°27'3 7.6
2018-Jun-20 09:00N 34°48' W 121°24'4 7.4
2018-Jun-20 08:30N 34°45' W 121°22'4 7.4
2018-Jun-20 08:00N 34°42' W 121°20'4 7.3
2018-Jun-20 07:30N 34°39' W 121°18'3 6.9
2018-Jun-20 07:00N 34°36' W 121°15'3 7.0
2018-Jun-20 06:30N 34°32' W 121°13'4 7.2
2018-Jun-20 05:59N 34°29' W 121°11'4 6.9
2018-Jun-20 05:25N 34°26' W 121°09'3 6.8
2018-Jun-20 05:00N 34°24' W 121°07'3 6.7
2018-Jun-20 04:30N 34°21' W 121°05'3 6.8
2018-Jun-20 04:00N 34°18' W 121°03'3 6.7
2018-Jun-20 03:31N 34°15' W 121°01'3 6.7
2018-Jun-20 03:00N 34°12' W 120°59'3 6.4
2018-Jun-20 02:31N 34°09' W 120°57'3 6.1
2018-Jun-20 02:00N 34°07' W 120°55'3 5.9
2018-Jun-20 01:31N 34°04' W 120°53'3 5.9
2018-Jun-20 01:00N 34°02' W 120°50'3 6.4
2018-Jun-20 00:30N 34°00' W 120°47'3 6.8
2018-Jun-20 00:01N 33°59' W 120°44'4 7.2
2018-Jun-19 23:30N 33°57' W 120°40'4 7.4
2018-Jun-19 23:00N 33°55' W 120°36'4 7.6
2018-Jun-19 22:31N 33°53' W 120°32'4 7.8
2018-Jun-19 22:00N 33°51' W 120°28'4 7.5
2018-Jun-19 21:31N 33°49' W 120°24'4 7.5
2018-Jun-19 21:00N 33°47' W 120°20'4 7.5
2018-Jun-19 20:30N 33°45' W 120°16'5 7.2
2018-Jun-19 19:52N 33°43' W 120°11'3 7.3
2018-Jun-19 19:31N 33°43' W 120°08'4 7.6
2018-Jun-19 18:56N 33°43' W 120°03'4 7.9
2018-Jun-19 18:27N 33°43' W 119°59'4 8.0
2018-Jun-19 18:00N 33°42' W 119°54'4 8.2
2018-Jun-19 17:29N 33°42' W 119°49'4 7.9
2018-Jun-19 17:00N 33°41' W 119°45'4 8.1
2018-Jun-19 16:30N 33°42' W 119°40'4 8.1
2018-Jun-19 16:00N 33°42' W 119°35'4 8.2
2018-Jun-19 15:31N 33°42' W 119°30'4 7.9
2018-Jun-19 15:01N 33°42' W 119°25'4 7.7
2018-Jun-19 14:30N 33°42' W 119°21'4 8.1
2018-Jun-19 14:00N 33°42' W 119°16'4 8.3
2018-Jun-19 13:30N 33°42' W 119°11'4 8.0
2018-Jun-19 13:00N 33°41' W 119°06'4 8.1
2018-Jun-19 12:30N 33°41' W 119°01'4 8.4
2018-Jun-19 12:00N 33°41' W 118°56'5 8.2
2018-Jun-19 11:26N 33°40' W 118°51'6 8.1
2018-Jun-19 10:43N 33°40' W 118°44'2 8.0
2018-Jun-19 10:30N 33°40' W 118°42'20 7.9
2018-Jun-19 08:01N 33°38' W 118°18'1 6.6
2018-Jun-19 07:53N 33°39' W 118°17'3 6.5
2018-Jun-19 07:30N 33°41' W 118°15'2 4.7
2018-Jun-19 07:00N 33°43' W 118°16'0 1.0
2018-Jun-19 06:30N 33°43' W 118°16'2 4.7
2018-Jun-19 06:00N 33°46' W 118°16'0 0.3
2018-Jun-19 05:30N 33°46' W 118°16'0 0.1
2018-Jun-19 05:00N 33°46' W 118°16'0 0.2
2018-Jun-19 04:30N 33°46' W 118°16'0 0.0
2018-Jun-19 04:00N 33°46' W 118°16'0 0.0
2018-Jun-19 03:30N 33°46' W 118°16'0 0.0
2018-Jun-19 03:00N 33°46' W 118°16'0 0.0
2018-Jun-19 02:30N 33°46' W 118°16'0 0.0
2018-Jun-19 02:00N 33°46' W 118°16'0 0.0
2018-Jun-19 01:30N 33°46' W 118°16'0 0.0
2018-Jun-19 01:00N 33°46' W 118°16'0 0.0
2018-Jun-19 00:30N 33°46' W 118°16'0 0.0
2018-Jun-19 00:00N 33°46' W 118°16'0 0.0
2018-Jun-18 23:30N 33°46' W 118°16'0 0.0
2018-Jun-18 23:00N 33°46' W 118°16'0 0.0
2018-Jun-18 22:30N 33°46' W 118°16'0 0.0
2018-Jun-18 22:00N 33°46' W 118°16'0 0.0
2018-Jun-18 21:30N 33°46' W 118°16'0 0.0
2018-Jun-18 21:00N 33°46' W 118°16'0 0.0
2018-Jun-18 20:30N 33°46' W 118°16'0 0.0
2018-Jun-18 20:00N 33°46' W 118°16'2 3.3
2018-Jun-18 19:31N 33°44' W 118°17'3 5.6
2018-Jun-18 19:01N 33°44' W 118°13'2 3.2
2018-Jun-18 18:28N 33°46' W 118°13'0 0.0
2018-Jun-18 17:58N 33°46' W 118°13'0 0.0
2018-Jun-18 17:28N 33°46' W 118°13'0 0.0
2018-Jun-18 16:55N 33°46' W 118°13'0 0.0
2018-Jun-18 16:28N 33°46' W 118°13'0 0.0
2018-Jun-18 15:58N 33°46' W 118°13'0 0.0
2018-Jun-18 15:28N 33°46' W 118°13'0 0.0
2018-Jun-18 14:55N 33°46' W 118°13'0 0.0
2018-Jun-18 14:28N 33°46' W 118°13'0 0.0
2018-Jun-18 13:58N 33°46' W 118°13'0 0.0
2018-Jun-18 13:25N 33°46' W 118°13'0 0.0
2018-Jun-18 12:58N 33°46' W 118°13'0 0.0
2018-Jun-18 12:16N 33°46' W 118°13'0 0.0
2018-Jun-18 11:52N 33°46' W 118°13'0 0.0
2018-Jun-18 11:19N 33°46' W 118°13'0 0.0
2018-Jun-18 10:58N 33°46' W 118°13'0 0.0
2018-Jun-18 10:28N 33°46' W 118°13'0 0.0
2018-Jun-18 09:55N 33°46' W 118°13'0 0.0
2018-Jun-18 09:28N 33°46' W 118°13'0 0.0
2018-Jun-18 08:52N 33°46' W 118°13'0 0.0
2018-Jun-18 08:28N 33°46' W 118°13'0 0.0
2018-Jun-18 07:58N 33°46' W 118°13'0 0.0
2018-Jun-18 07:28N 33°46' W 118°13'0 0.0
2018-Jun-18 06:52N 33°46' W 118°13'0 0.0
2018-Jun-18 06:28N 33°46' W 118°13'0 0.0
2018-Jun-18 05:55N 33°46' W 118°13'0 0.0
2018-Jun-18 05:28N 33°46' W 118°13'0 0.0
2018-Jun-18 04:58N 33°46' W 118°13'0 0.0
2018-Jun-18 04:28N 33°46' W 118°13'0 0.0
2018-Jun-18 03:55N 33°46' W 118°13'0 0.0
2018-Jun-18 03:28N 33°46' W 118°13'0 0.0
2018-Jun-18 02:58N 33°46' W 118°13'0 0.0
2018-Jun-18 02:28N 33°46' W 118°13'0 0.0
2018-Jun-18 01:58N 33°46' W 118°13'0 0.0
2018-Jun-18 01:28N 33°46' W 118°13'0 0.0
2018-Jun-18 00:58N 33°46' W 118°13'0 0.0
2018-Jun-18 00:28N 33°46' W 118°13'0 0.0
2018-Jun-17 23:58N 33°46' W 118°13'0 0.0
2018-Jun-17 23:28N 33°46' W 118°13'0 0.0
2018-Jun-17 22:58N 33°46' W 118°13'0 0.0
2018-Jun-17 22:28N 33°46' W 118°13'0 0.0
2018-Jun-17 21:58N 33°46' W 118°13'0 0.0
2018-Jun-17 21:28N 33°46' W 118°13'0 0.0
2018-Jun-17 20:58N 33°46' W 118°13'0 0.0
2018-Jun-17 20:28N 33°46' W 118°13'0 0.0
2018-Jun-17 19:58N 33°46' W 118°13'0 0.0
2018-Jun-17 19:28N 33°46' W 118°13'0 0.0
2018-Jun-17 18:58N 33°46' W 118°13'0 0.0
2018-Jun-17 18:28N 33°46' W 118°13'0 0.0
2018-Jun-17 17:58N 33°46' W 118°13'0 0.0
2018-Jun-17 17:28N 33°46' W 118°13'0 0.0
2018-Jun-17 16:52N 33°46' W 118°13'0 0.0
2018-Jun-17 16:28N 33°46' W 118°13'0 0.0
2018-Jun-17 15:58N 33°46' W 118°13'0 0.0
2018-Jun-17 15:28N 33°46' W 118°13'0 0.0
2018-Jun-17 14:58N 33°46' W 118°13'0 0.0
2018-Jun-17 14:28N 33°46' W 118°13'0 0.0
2018-Jun-17 13:58N 33°46' W 118°13'0 0.0
2018-Jun-17 13:28N 33°46' W 118°13'0 0.0
2018-Jun-17 12:34N 33°46' W 118°13'0 0.1
2018-Jun-17 12:28N 33°46' W 118°13'0 0.0
2018-Jun-17 11:55N 33°46' W 118°13'0 0.0
2018-Jun-17 11:22N 33°46' W 118°13'0 0.0
2018-Jun-17 10:58N 33°46' W 118°13'0 0.0
2018-Jun-17 10:28N 33°46' W 118°13'0 0.0
2018-Jun-17 09:58N 33°46' W 118°13'0 0.0
2018-Jun-17 09:25N 33°46' W 118°13'0 0.0
2018-Jun-17 08:46N 33°46' W 118°13'0 0.0
2018-Jun-17 08:25N 33°46' W 118°13'0 0.0
2018-Jun-17 07:58N 33°46' W 118°13'0 0.0
2018-Jun-17 07:22N 33°46' W 118°13'0 0.0
2018-Jun-17 06:40N 33°46' W 118°13'0 0.0
2018-Jun-17 06:28N 33°46' W 118°13'0 0.0
2018-Jun-17 05:55N 33°46' W 118°13'0 0.0
2018-Jun-17 05:25N 33°46' W 118°13'0 0.0
2018-Jun-17 04:52N 33°46' W 118°13'0 0.0
2018-Jun-17 04:22N 33°46' W 118°13'0 0.0
2018-Jun-17 03:58N 33°46' W 118°13'0 0.0
2018-Jun-17 03:28N 33°46' W 118°13'0 0.0
2018-Jun-17 02:58N 33°46' W 118°13'0 0.0
2018-Jun-17 02:28N 33°46' W 118°13'0 0.0
2018-Jun-17 01:58N 33°46' W 118°13'0 0.0
2018-Jun-17 01:25N 33°46' W 118°13'0 0.0
2018-Jun-17 00:58N 33°46' W 118°13'0 0.0
2018-Jun-17 00:28N 33°46' W 118°13'0 0.0
2018-Jun-16 23:58N 33°46' W 118°13'0 0.0
2018-Jun-16 23:28N 33°46' W 118°13'0 0.0
2018-Jun-16 22:58N 33°46' W 118°13'0 0.0
2018-Jun-16 22:28N 33°46' W 118°13'0 0.0
2018-Jun-16 21:58N 33°46' W 118°13'0 0.0
2018-Jun-16 21:25N 33°46' W 118°13'0 0.0
2018-Jun-16 20:55N 33°46' W 118°13'0 1.2
2018-Jun-16 20:30N 33°46' W 118°13'3 6.8
2018-Jun-16 20:00N 33°43' W 118°16'2 4.9
2018-Jun-16 19:30N 33°46' W 118°16'0 0.1
2018-Jun-16 19:00N 33°46' W 118°16'2 3.5
2018-Jun-16 18:30N 33°44' W 118°17'2 4.7
2018-Jun-16 18:00N 33°44' W 118°14'0 0.3
2018-Jun-16 17:30N 33°44' W 118°14'0 0.1
2018-Jun-16 16:57N 33°44' W 118°14'0 0.0
2018-Jun-16 16:30N 33°44' W 118°14'0 0.1
2018-Jun-16 16:00N 33°44' W 118°14'0 0.1
2018-Jun-16 15:30N 33°44' W 118°14'3 5.0
2018-Jun-16 15:00N 33°43' W 118°11'3 6.7
2018-Jun-16 14:30N 33°40' W 118°11'3 7.0
2018-Jun-16 14:00N 33°37' W 118°14'4 8.2
2018-Jun-16 13:30N 33°36' W 118°19'4 8.6
2018-Jun-16 12:59N 33°36' W 118°24'8 7.7
2018-Jun-16 11:57N 33°36' W 118°34'6 7.6
2018-Jun-16 11:14N 33°36' W 118°40'2 7.5
2018-Jun-16 10:58N 33°36' W 118°43'4 7.5
2018-Jun-16 10:28N 33°36' W 118°47'6 7.4
2018-Jun-16 09:44N 33°37' W 118°54'2 7.2
2018-Jun-16 09:30N 33°37' W 118°56'3 6.9
2018-Jun-16 09:01N 33°37' W 118°60'3 6.8
2018-Jun-16 08:30N 33°38' W 119°04'4 7.2
2018-Jun-16 08:00N 33°38' W 119°08'5 7.4
2018-Jun-16 07:20N 33°39' W 119°14'3 7.2
2018-Jun-16 06:52N 33°39' W 119°18'3 7.0
2018-Jun-16 06:28N 33°39' W 119°21'3 7.2
2018-Jun-16 06:00N 33°40' W 119°25'4 7.1
2018-Jun-16 05:26N 33°40' W 119°30'4 7.3
2018-Jun-16 04:53N 33°40' W 119°35'3 7.3
2018-Jun-16 04:29N 33°41' W 119°39'4 7.8
2018-Jun-16 03:58N 33°41' W 119°43'4 8.2
2018-Jun-16 03:29N 33°42' W 119°48'4 8.0
2018-Jun-16 03:00N 33°42' W 119°53'4 7.5
2018-Jun-16 02:25N 33°42' W 119°58'5 8.1
2018-Jun-16 01:51N 33°43' W 120°03'3 8.6
2018-Jun-16 01:30N 33°43' W 120°07'4 7.8
2018-Jun-16 00:55N 33°44' W 120°12'4 7.3
2018-Jun-16 00:25N 33°45' W 120°16'4 8.0
2018-Jun-15 23:53N 33°48' W 120°21'3 8.2
2018-Jun-15 23:29N 33°49' W 120°24'4 7.9
2018-Jun-15 23:00N 33°51' W 120°28'5 8.0
2018-Jun-15 22:24N 33°54' W 120°33'3 7.9
2018-Jun-15 21:58N 33°55' W 120°37'4 7.9
2018-Jun-15 21:25N 33°57' W 120°41'4 7.8
2018-Jun-15 20:57N 33°59' W 120°45'5 7.9
2018-Jun-15 20:21N 34°02' W 120°50'3 8.6
2018-Jun-15 20:00N 34°04' W 120°52'5 8.3
2018-Jun-15 19:27N 34°08' W 120°55'4 8.2
2018-Jun-15 18:57N 34°11' W 120°58'4 7.8
2018-Jun-15 18:28N 34°14' W 121°00'5 7.5
2018-Jun-15 17:47N 34°19' W 121°04'2 7.2
2018-Jun-15 17:28N 34°21' W 121°05'3 7.1
2018-Jun-15 17:00N 34°23' W 121°08'4 7.5
2018-Jun-15 16:29N 34°26' W 121°11'4 8.1
2018-Jun-15 15:57N 34°30' W 121°13'4 8.0
2018-Jun-15 15:31N 34°33' W 121°15'4 8.1
2018-Jun-15 14:58N 34°37' W 121°18'4 8.0
2018-Jun-15 14:30N 34°40' W 121°21'4 7.9
2018-Jun-15 13:59N 34°43' W 121°23'4 7.5
2018-Jun-15 13:30N 34°46' W 121°26'7 8.1
2018-Jun-15 12:36N 34°52' W 121°31'1 9.5
2018-Jun-15 12:29N 34°53' W 121°32'4 8.1
2018-Jun-15 12:00N 34°57' W 121°34'4 7.7
2018-Jun-15 11:29N 34°60' W 121°37'4 8.0
2018-Jun-15 10:58N 35°03' W 121°40'4 8.1
2018-Jun-15 10:26N 35°07' W 121°42'146 7.4
2018-Jun-14 14:43N 37°18' W 123°03'31 5.9
2018-Jun-14 09:26N 37°45' W 122°43'4 5.7
2018-Jun-14 08:45N 37°46' W 122°38'1 5.9
2018-Jun-14 08:30N 37°46' W 122°37'3 6.5
2018-Jun-14 08:00N 37°48' W 122°33'3 6.8
2018-Jun-14 07:30N 37°49' W 122°29'3 5.6
2018-Jun-14 07:00N 37°50' W 122°26'3 5.0
2018-Jun-14 06:30N 37°53' W 122°25'2 4.3
2018-Jun-14 06:00N 37°55' W 122°25'1 1.6
2018-Jun-14 05:30N 37°55' W 122°25'0 0.7
2018-Jun-14 04:58N 37°55' W 122°25'0 0.7
2018-Jun-14 04:30N 37°55' W 122°24'0 0.1
2018-Jun-14 03:43N 37°55' W 122°25'0 0.0
2018-Jun-14 03:28N 37°55' W 122°25'0 0.0
2018-Jun-14 02:58N 37°55' W 122°25'0 0.0
2018-Jun-14 02:28N 37°55' W 122°25'0 0.0
2018-Jun-14 02:01N 37°55' W 122°25'0 0.0
2018-Jun-14 01:28N 37°55' W 122°25'0 0.0
2018-Jun-14 00:55N 37°55' W 122°25'0 0.0
2018-Jun-14 00:19N 37°55' W 122°25'0 0.0
2018-Jun-13 23:58N 37°55' W 122°25'0 0.0
2018-Jun-13 23:31N 37°55' W 122°25'0 0.0
2018-Jun-13 22:52N 37°55' W 122°25'0 0.0
2018-Jun-13 22:28N 37°55' W 122°25'0 0.0
2018-Jun-13 22:01N 37°55' W 122°25'0 0.0
2018-Jun-13 21:28N 37°55' W 122°25'0 0.0
2018-Jun-13 20:58N 37°55' W 122°25'0 0.0
2018-Jun-13 20:28N 37°55' W 122°25'0 0.0
2018-Jun-13 20:01N 37°55' W 122°25'0 0.0
2018-Jun-13 19:31N 37°55' W 122°25'0 0.0
2018-Jun-13 18:58N 37°55' W 122°25'0 0.0
2018-Jun-13 18:31N 37°55' W 122°25'0 0.0
2018-Jun-13 17:55N 37°55' W 122°25'0 0.0
2018-Jun-13 17:31N 37°55' W 122°25'0 0.0
2018-Jun-13 16:52N 37°55' W 122°25'0 0.0
2018-Jun-13 16:31N 37°55' W 122°25'0 0.0
2018-Jun-13 16:01N 37°55' W 122°25'0 0.0
2018-Jun-13 15:31N 37°55' W 122°25'0 0.0
2018-Jun-13 14:58N 37°55' W 122°25'0 0.0
2018-Jun-13 14:31N 37°55' W 122°25'0 0.0
2018-Jun-13 13:25N 37°55' W 122°25'0 0.0
2018-Jun-13 13:01N 37°55' W 122°25'0 0.0
2018-Jun-13 10:25N 37°55' W 122°25'0 0.0
2018-Jun-13 09:01N 37°55' W 122°25'0 0.0
2018-Jun-13 08:22N 37°55' W 122°25'0 0.0
2018-Jun-13 08:01N 37°55' W 122°25'0 0.0
2018-Jun-13 06:55N 37°55' W 122°25'0 0.0
2018-Jun-13 06:22N 37°55' W 122°25'0 0.0
2018-Jun-13 05:22N 37°55' W 122°25'0 0.0
2018-Jun-13 04:21N 37°55' W 122°25'0 0.0
2018-Jun-13 04:01N 37°55' W 122°25'0 0.0
2018-Jun-13 03:31N 37°55' W 122°25'0 0.0
2018-Jun-13 03:01N 37°55' W 122°25'0 0.0
2018-Jun-13 02:31N 37°55' W 122°25'0 0.0
2018-Jun-13 01:55N 37°55' W 122°25'0 0.0
2018-Jun-13 01:22N 37°55' W 122°25'0 0.0
2018-Jun-13 01:00N 37°55' W 122°25'0 0.0
2018-Jun-13 00:30N 37°55' W 122°25'0 0.0
2018-Jun-12 23:55N 37°55' W 122°25'0 0.0
2018-Jun-12 23:27N 37°55' W 122°25'0 0.0
2018-Jun-12 23:00N 37°55' W 122°25'0 0.0
2018-Jun-12 22:31N 37°55' W 122°25'0 0.0
2018-Jun-12 22:01N 37°55' W 122°25'0 0.0
2018-Jun-12 21:12N 37°55' W 122°25'0 0.0
2018-Jun-12 20:54N 37°55' W 122°25'0 0.0
2018-Jun-12 20:30N 37°55' W 122°25'0 0.0
2018-Jun-12 20:01N 37°55' W 122°25'0 0.0
2018-Jun-12 18:42N 37°55' W 122°25'0 0.0
2018-Jun-12 17:42N 37°55' W 122°25'0 0.0
2018-Jun-12 17:18N 37°55' W 122°25'0 0.0
2018-Jun-12 16:42N 37°55' W 122°25'0 0.0
2018-Jun-12 16:06N 37°55' W 122°25'0 0.1
2018-Jun-12 16:00N 37°55' W 122°25'0 0.0
2018-Jun-12 14:57N 37°55' W 122°25'0 0.0
2018-Jun-12 13:12N 37°55' W 122°25'0 0.0
2018-Jun-12 12:42N 37°55' W 122°25'0 0.0
2018-Jun-12 11:18N 37°55' W 122°25'0 0.0
2018-Jun-12 10:06N 37°55' W 122°25'0 0.0
2018-Jun-12 09:36N 37°55' W 122°25'0 0.0
2018-Jun-12 09:18N 37°55' W 122°25'0 0.0
2018-Jun-12 09:00N 37°55' W 122°25'0 0.0
2018-Jun-12 06:48N 37°55' W 122°25'0 0.0
2018-Jun-12 06:30N 37°55' W 122°25'0 0.0
2018-Jun-12 06:00N 37°55' W 122°25'0 0.0
2018-Jun-12 05:30N 37°55' W 122°25'0 0.0
2018-Jun-12 05:00N 37°55' W 122°25'0 0.0
2018-Jun-12 04:12N 37°55' W 122°25'0 0.0
2018-Jun-12 03:54N 37°55' W 122°25'0 0.0
2018-Jun-12 03:30N 37°55' W 122°25'0 0.0
2018-Jun-12 03:00N 37°55' W 122°25'0 0.0
2018-Jun-12 02:30N 37°55' W 122°25'0 0.0
2018-Jun-12 02:00N 37°55' W 122°25'0 0.0
2018-Jun-12 01:30N 37°55' W 122°25'0 0.0
2018-Jun-12 00:54N 37°55' W 122°25'0 0.0
2018-Jun-11 23:12N 37°55' W 122°25'0 0.0
2018-Jun-11 23:00N 37°55' W 122°25'  

Dump ship's entire track history